Terminal Aerodrome Forecast
Issued by NWS Pocatello, ID

Home | Current Version | Previous Version | Text Only | Print | Product List | Glossary On
Versions: 1 2 3 4 5 6 7 8 9 10 11 12 13 14 15 16
000
FTUS45 KPIH 271408 AAB
TAFBYI
TAF AMD
KBYI 271408Z 2714/2812 25008KT P6SM -SHRA BKN015 BKN060
     FM271800 28015G25KT P6SM -SHRA BKN025 BKN060
     FM272100 28015G25KT P6SM -SHRA BKN035
     FM280000 29012G22KT P6SM VCSH SCT040=

USA.gov is the U.S. government's official web portal to all federal, state and local government web resources and services.